createdAt,value
2023-01-15T00:01:07.432Z,0.52
2023-01-15T00:03:35.508Z,0.57
2023-01-15T00:06:04.178Z,0.50
2023-01-15T00:08:32.204Z,0.70
2023-01-15T00:11:04.370Z,0.77
2023-01-15T00:13:33.754Z,0.60
2023-01-15T00:16:06.481Z,0.50
2023-01-15T00:18:34.858Z,0.68
2023-01-15T00:21:03.247Z,0.50
2023-01-15T00:23:49.215Z,0.70
2023-01-15T00:26:36.089Z,1.95
2023-01-15T00:29:06.263Z,0.50
2023-01-15T00:31:36.166Z,0.80
2023-01-15T00:34:04.476Z,0.40
2023-01-15T00:36:33.650Z,0.52
2023-01-15T00:39:01.726Z,0.68
2023-01-15T00:41:29.763Z,0.50
2023-01-15T00:43:58.053Z,0.90
2023-01-15T00:46:27.575Z,0.80
2023-01-15T00:48:55.575Z,2.50
2023-01-15T00:51:23.650Z,4.20
2023-01-15T00:53:51.695Z,2.80
2023-01-15T00:56:19.876Z,2.17
2023-01-15T00:58:48.498Z,1.77
2023-01-15T01:01:17.330Z,2.00
2023-01-15T01:03:48.885Z,1.55
2023-01-15T01:06:17.592Z,1.10
2023-01-15T01:08:46.204Z,1.40
2023-01-15T01:11:15.911Z,1.30
2023-01-15T01:13:44.290Z,2.25
2023-01-15T01:16:25.057Z,1.05
2023-01-15T01:18:55.539Z,1.20
2023-01-15T01:21:23.569Z,0.75
2023-01-15T01:23:51.593Z,0.50
2023-01-15T01:26:19.681Z,0.50
2023-01-15T01:28:51.066Z,0.70
2023-01-15T01:31:20.295Z,0.70
2023-01-15T01:33:49.603Z,0.60
2023-01-15T01:36:20.042Z,0.52
2023-01-15T01:38:50.540Z,0.77
2023-01-15T01:41:19.192Z,0.60
2023-01-15T01:43:55.998Z,0.52
2023-01-15T01:46:24.606Z,1.23
2023-01-15T01:48:56.998Z,1.13
2023-01-15T01:51:29.946Z,0.57
2023-01-15T01:54:01.425Z,0.52
2023-01-15T01:56:30.407Z,0.60
2023-01-15T01:58:58.786Z,1.02
2023-01-15T02:01:27.242Z,0.80
2023-01-15T02:03:55.392Z,0.63
2023-01-15T02:06:28.035Z,0.70
2023-01-15T02:08:56.843Z,0.73
2023-01-15T02:11:26.093Z,1.00
2023-01-15T02:14:05.301Z,0.95
2023-01-15T02:16:37.655Z,0.88
2023-01-15T02:19:21.443Z,0.57
2023-01-15T02:21:58.794Z,0.85
2023-01-15T02:24:36.424Z,0.60
2023-01-15T02:27:34.947Z,0.60
2023-01-15T02:30:07.290Z,0.70
2023-01-15T02:32:47.213Z,0.98
2023-01-15T02:35:20.933Z,0.80
2023-01-15T02:37:54.856Z,0.60
2023-01-15T02:40:26.531Z,0.47
2023-01-15T02:42:57.622Z,0.65
2023-01-15T02:45:31.068Z,0.88
2023-01-15T02:48:08.536Z,0.57
2023-01-15T02:50:41.233Z,0.50
2023-01-15T02:53:15.648Z,0.50
2023-01-15T02:55:47.253Z,0.70
2023-01-15T02:58:23.987Z,0.60
2023-01-15T03:00:55.793Z,0.63
2023-01-15T03:03:35.512Z,0.60
2023-01-15T03:06:09.113Z,0.50
2023-01-15T03:08:37.537Z,0.63
2023-01-15T03:11:09.741Z,0.85
2023-01-15T03:13:52.728Z,0.47
2023-01-15T03:16:37.918Z,0.40
2023-01-15T03:19:14.017Z,0.60
2023-01-15T03:21:50.743Z,1.17
2023-01-15T03:24:26.168Z,0.93
2023-01-15T03:26:54.710Z,0.63
2023-01-15T03:29:26.663Z,0.82
2023-01-15T03:31:55.258Z,0.68
2023-01-15T03:34:24.071Z,0.77
2023-01-15T03:36:52.308Z,0.50
2023-01-15T03:39:20.395Z,0.50
2023-01-15T03:42:21.274Z,0.40
2023-01-15T03:44:58.958Z,0.40
2023-01-15T03:47:37.062Z,0.50
2023-01-15T03:50:13.405Z,0.55
2023-01-15T03:52:49.280Z,0.50
2023-01-15T03:55:23.584Z,0.60
2023-01-15T03:58:07.876Z,0.80
2023-01-15T04:00:45.534Z,0.45
2023-01-15T04:03:17.064Z,0.60
2023-01-15T04:05:45.454Z,0.75
2023-01-15T04:08:17.858Z,0.40
2023-01-15T04:10:53.494Z,0.40
2023-01-15T04:13:22.679Z,0.60
2023-01-15T04:15:52.318Z,0.80
2023-01-15T04:18:20.994Z,0.40
2023-01-15T04:20:49.482Z,0.50
2023-01-15T04:23:17.554Z,1.13
2023-01-15T04:25:45.544Z,0.73
2023-01-15T04:28:15.309Z,0.55
2023-01-15T04:30:43.611Z,0.55
2023-01-15T04:33:13.193Z,0.80
2023-01-15T04:35:41.226Z,0.52
2023-01-15T04:38:09.222Z,0.80
2023-01-15T04:40:54.889Z,0.40
2023-01-15T04:43:40.345Z,0.40
2023-01-15T04:46:08.501Z,0.50
2023-01-15T04:48:37.817Z,1.00
2023-01-15T04:51:06.883Z,0.63
2023-01-15T04:53:35.255Z,1.00
2023-01-15T04:56:03.788Z,0.80
2023-01-15T04:58:32.504Z,0.50
2023-01-15T05:01:01.541Z,0.70
2023-01-15T05:03:30.189Z,0.57
2023-01-15T05:06:02.543Z,0.47
2023-01-15T05:08:30.904Z,0.50
2023-01-15T05:11:03.749Z,0.40
2023-01-15T05:13:33.277Z,0.57
2023-01-15T05:16:09.674Z,0.70
2023-01-15T05:18:37.798Z,0.50
2023-01-15T05:21:08.078Z,0.45
2023-01-15T05:23:37.100Z,0.30
2023-01-15T05:26:06.227Z,0.47
2023-01-15T05:28:34.249Z,0.50
2023-01-15T05:31:08.247Z,0.77
2023-01-15T05:33:36.925Z,0.65
2023-01-15T05:36:08.870Z,0.47
2023-01-15T05:38:37.280Z,0.68
2023-01-15T05:41:27.572Z,0.40
2023-01-15T05:43:56.022Z,0.40
2023-01-15T05:46:24.424Z,0.68
2023-01-15T05:48:52.575Z,0.70
2023-01-15T05:51:21.976Z,0.80
2023-01-15T05:53:49.949Z,0.60
2023-01-15T05:56:17.951Z,0.20
2023-01-15T05:58:46.005Z,0.60
2023-01-15T06:01:14.281Z,0.50
2023-01-15T06:03:42.490Z,0.93
2023-01-15T06:06:14.461Z,0.68
2023-01-15T06:08:44.117Z,0.40
2023-01-15T06:11:12.663Z,0.57
2023-01-15T06:13:41.445Z,0.50
2023-01-15T06:16:12.349Z,0.73
2023-01-15T06:18:41.400Z,0.68
2023-01-15T06:21:10.999Z,0.65
2023-01-15T06:23:39.913Z,0.45
2023-01-15T06:26:12.938Z,0.70
2023-01-15T06:28:41.116Z,0.60
2023-01-15T06:31:11.117Z,0.60
2023-01-15T06:33:39.264Z,0.60
2023-01-15T06:36:08.995Z,1.33
2023-01-15T06:38:36.997Z,0.55
2023-01-15T06:41:27.558Z,0.63
2023-01-15T06:44:10.883Z,1.10
2023-01-15T06:47:01.961Z,0.40
2023-01-15T06:49:30.028Z,0.85
2023-01-15T06:51:58.245Z,0.47
2023-01-15T06:54:26.360Z,0.70
2023-01-15T06:56:54.821Z,0.50
2023-01-15T06:59:24.300Z,0.52
2023-01-15T07:01:52.555Z,1.02
2023-01-15T07:04:20.804Z,1.15
2023-01-15T07:06:48.820Z,0.50
2023-01-15T07:09:16.846Z,0.43
2023-01-15T07:11:50.210Z,0.82
2023-01-15T07:14:19.847Z,0.93
2023-01-15T07:16:49.587Z,0.88
2023-01-15T07:19:18.545Z,0.85
2023-01-15T07:21:46.717Z,1.10
2023-01-15T07:24:15.448Z,0.68
2023-01-15T07:26:43.937Z,0.57
2023-01-15T07:29:12.124Z,1.02
2023-01-15T07:31:40.705Z,0.40
2023-01-15T07:34:10.718Z,0.75
2023-01-15T07:36:39.021Z,0.50
2023-01-15T07:39:08.408Z,0.63
2023-01-15T07:41:54.329Z,0.50
2023-01-15T07:44:40.177Z,0.50
2023-01-15T07:47:35.519Z,0.70
2023-01-15T07:50:06.444Z,0.60
2023-01-15T07:52:34.452Z,0.55
2023-01-15T07:55:03.851Z,0.63
2023-01-15T07:57:32.097Z,0.52
2023-01-15T08:00:00.079Z,0.77
2023-01-15T08:02:28.753Z,0.50
2023-01-15T08:04:56.754Z,0.50
2023-01-15T08:07:26.482Z,0.77
2023-01-15T08:09:54.755Z,0.30
2023-01-15T08:12:40.489Z,0.40
2023-01-15T08:15:16.907Z,0.68
2023-01-15T08:17:46.878Z,0.40
2023-01-15T08:20:17.069Z,0.52
2023-01-15T08:22:46.779Z,0.50
2023-01-15T08:25:17.614Z,0.47
2023-01-15T08:27:45.902Z,0.43
2023-01-15T08:30:17.220Z,0.40
2023-01-15T08:32:45.388Z,0.40
2023-01-15T08:35:13.596Z,0.70
2023-01-15T08:37:42.035Z,0.50
2023-01-15T08:40:12.913Z,0.60
2023-01-15T08:42:41.164Z,0.68
2023-01-15T08:45:10.389Z,0.60
2023-01-15T08:47:39.046Z,0.80
2023-01-15T08:50:08.650Z,0.60
2023-01-15T08:52:37.903Z,0.70
2023-01-15T08:55:07.151Z,0.45
2023-01-15T08:57:37.593Z,0.70
2023-01-15T09:00:06.712Z,1.17
2023-01-15T09:02:34.704Z,1.15
2023-01-15T09:05:02.768Z,0.80
2023-01-15T09:07:30.864Z,0.57
2023-01-15T09:09:58.843Z,0.60
2023-01-15T09:12:27.394Z,0.50
2023-01-15T09:15:02.022Z,0.90
2023-01-15T09:17:33.389Z,0.40
2023-01-15T09:20:02.951Z,0.45
2023-01-15T09:22:31.343Z,0.60
2023-01-15T09:24:59.557Z,0.40
2023-01-15T09:27:27.770Z,0.50
2023-01-15T09:29:57.979Z,0.50
2023-01-15T09:32:26.178Z,0.63
2023-01-15T09:34:54.170Z,0.50
2023-01-15T09:37:22.977Z,0.90
2023-01-15T09:39:51.113Z,0.80
2023-01-15T09:42:40.832Z,0.70
2023-01-15T09:45:17.919Z,1.00
2023-01-15T09:47:59.293Z,0.90
